Time;durP1;ratioP1;P1;durP2;ratioP2;P2;SDS_P1;SDS_P2;PMS_P1;PMS_P2;Temp;Humidity;BMP_temperature;BMP_pressure;BME280_temperature;BME280_humidity;BME280_pressure;Samples;Min_cycle;Max_cycle;Signal;HPM_P1;HPM_P2
2023/07/29 00:00:12;;;;;;;15.90;11.82;;;;;;;;;;5073061;28;20115;-67
2023/07/29 00:02:37;;;;;;;18.83;14.90;;;;;;;;;;5071347;28;20032;-68
2023/07/29 00:05:02;;;;;;;13.77;12.37;;;;;;;;;;5055549;28;20013;-66
2023/07/29 00:07:28;;;;;;;14.30;12.25;;;;;;;;;;5051252;28;20456;-67
2023/07/29 00:09:53;;;;;;;11.30;10.17;;;;;;;;;;5052439;28;20155;-67
2023/07/29 00:12:18;;;;;;;14.90;13.30;;;;;;;;;;5057546;28;20047;-67
2023/07/29 00:14:43;;;;;;;13.90;11.40;;;;;;;;;;5072223;28;20373;-67
2023/07/29 00:17:08;;;;;;;16.45;11.65;;;;;;;;;;5070682;28;20033;-67
2023/07/29 00:19:34;;;;;;;13.03;10.90;;;;;;;;;;5073064;28;20024;-68
2023/07/29 00:21:59;;;;;;;12.68;11.38;;;;;;;;;;5062011;28;20037;-68
2023/07/29 00:24:24;;;;;;;16.70;11.53;;;;;;;;;;5058207;28;20075;-69
2023/07/29 00:26:49;;;;;;;13.02;10.52;;;;;;;;;;5059255;28;20060;-66
2023/07/29 00:29:15;;;;;;;10.68;9.68;;;;;;;;;;5072338;28;20075;-67
2023/07/29 00:31:40;;;;;;;11.93;10.40;;;;;;;;;;5070370;28;20040;-67
2023/07/29 00:34:05;;;;;;;12.40;9.67;;;;;;;;;;5072088;28;20485;-66
2023/07/29 00:36:30;;;;;;;12.57;10.52;;;;;;;;;;5070829;28;20106;-65
2023/07/29 00:38:57;;;;;;;12.00;9.33;;;;;;;;;;5071843;28;20025;-66
2023/07/29 00:41:22;;;;;;;19.17;9.88;;;;;;;;;;5070680;28;20115;-66
2023/07/29 00:43:47;;;;;;;16.15;10.70;;;;;;;;;;5072379;28;20104;-66
2023/07/29 00:46:12;;;;;;;13.60;11.73;;;;;;;;;;5069841;28;20048;-66
2023/07/29 00:48:38;;;;;;;13.95;11.25;;;;;;;;;;5069010;28;20100;-67
2023/07/29 00:51:03;;;;;;;12.80;11.45;;;;;;;;;;5050547;28;20017;-66
2023/07/29 00:53:28;;;;;;;11.35;9.63;;;;;;;;;;5051678;28;20025;-67
2023/07/29 00:55:53;;;;;;;10.93;9.93;;;;;;;;;;5048878;28;20021;-66
2023/07/29 00:58:19;;;;;;;9.07;8.13;;;;;;;;;;5051788;28;20150;-67
2023/07/29 01:00:44;;;;;;;10.13;9.13;;;;;;;;;;5064016;28;20024;-68
2023/07/29 01:03:09;;;;;;;15.80;8.85;;;;;;;;;;5070186;28;20039;-67
2023/07/29 01:05:49;;;;;;;12.73;11.23;;;;;;;;;;5071893;28;20024;-67
2023/07/29 01:08:23;;;;;;;16.38;9.98;;;;;;;;;;5063773;28;21115;-67
2023/07/29 01:11:14;;;;;;;11.38;8.77;;;;;;;;;;5050307;28;20025;-67
2023/07/29 01:13:39;;;;;;;10.95;9.85;;;;;;;;;;5050493;28;20602;-67
2023/07/29 01:16:09;;;;;;;11.15;7.75;;;;;;;;;;5050513;28;20443;-67
2023/07/29 01:18:35;;;;;;;12.07;10.13;;;;;;;;;;5063736;28;20013;-68
2023/07/29 01:21:03;;;;;;;13.85;8.70;;;;;;;;;;5051051;28;20652;-67
2023/07/29 01:23:33;;;;;;;10.98;9.13;;;;;;;;;;5071073;28;20012;-67
2023/07/29 01:25:58;;;;;;;14.05;9.65;;;;;;;;;;5033705;28;20025;-67
2023/07/29 01:28:24;;;;;;;9.82;8.50;;;;;;;;;;5062591;28;20017;-67
2023/07/29 01:30:51;;;;;;;12.07;9.57;;;;;;;;;;5069699;28;20036;-67
2023/07/29 01:33:17;;;;;;;11.45;10.25;;;;;;;;;;5071067;28;20502;-67
2023/07/29 01:35:46;;;;;;;15.75;11.48;;;;;;;;;;5070800;28;20048;-67
2023/07/29 01:38:18;;;;;;;11.82;10.65;;;;;;;;;;5069146;28;20429;-67
2023/07/29 01:40:44;;;;;;;10.80;9.70;;;;;;;;;;5071590;28;20016;-67
2023/07/29 01:43:10;;;;;;;12.10;10.82;;;;;;;;;;5069652;28;20118;-68
2023/07/29 01:45:38;;;;;;;13.38;12.00;;;;;;;;;;5070303;28;20032;-70
2023/07/29 01:48:07;;;;;;;9.65;8.65;;;;;;;;;;5054758;28;20049;-67
2023/07/29 01:50:32;;;;;;;11.15;8.73;;;;;;;;;;5049468;28;20033;-67
2023/07/29 01:52:58;;;;;;;10.60;8.60;;;;;;;;;;5067021;28;20564;-67
2023/07/29 01:55:23;;;;;;;12.30;8.85;;;;;;;;;;5070290;28;20475;-67
2023/07/29 01:57:48;;;;;;;9.48;8.40;;;;;;;;;;5069382;28;20060;-67
2023/07/29 02:00:13;;;;;;;15.40;10.30;;;;;;;;;;5070273;28;20106;-67
2023/07/29 02:02:38;;;;;;;12.35;10.90;;;;;;;;;;5069507;28;20400;-67
2023/07/29 02:05:04;;;;;;;10.50;9.10;;;;;;;;;;5070500;28;20020;-67
2023/07/29 02:07:29;;;;;;;9.63;8.63;;;;;;;;;;5068913;28;20578;-67
2023/07/29 02:09:54;;;;;;;15.20;9.38;;;;;;;;;;5070955;28;20467;-67
2023/07/29 02:12:19;;;;;;;9.93;8.93;;;;;;;;;;5069268;28;20043;-67
2023/07/29 02:14:45;;;;;;;10.67;9.17;;;;;;;;;;5069799;28;20032;-68
2023/07/29 02:17:10;;;;;;;15.30;10.35;;;;;;;;;;5069117;28;20443;-67
2023/07/29 02:19:35;;;;;;;13.47;10.50;;;;;;;;;;5070762;28;20498;-71
2023/07/29 02:22:00;;;;;;;11.68;10.48;;;;;;;;;;5069219;28;20473;-68
2023/07/29 02:24:25;;;;;;;13.37;12.00;;;;;;;;;;5058775;28;20033;-68
2023/07/29 02:26:51;;;;;;;13.40;11.60;;;;;;;;;;5049179;28;20124;-68
2023/07/29 02:29:16;;;;;;;13.55;12.15;;;;;;;;;;5069936;28;20070;-68
2023/07/29 02:31:41;;;;;;;12.33;11.03;;;;;;;;;;5072794;28;20128;-68
2023/07/29 02:34:06;;;;;;;16.87;11.27;;;;;;;;;;5074376;28;20422;-67
2023/07/29 02:36:31;;;;;;;16.03;13.63;;;;;;;;;;5072571;28;20127;-68
2023/07/29 02:38:56;;;;;;;13.93;12.50;;;;;;;;;;5074655;28;20514;-67
2023/07/29 02:41:22;;;;;;;14.60;10.80;;;;;;;;;;5073034;28;20443;-68
2023/07/29 02:43:50;;;;;;;14.15;11.98;;;;;;;;;;5057597;28;20450;-68
2023/07/29 02:46:15;;;;;;;15.88;12.80;;;;;;;;;;5052922;28;20381;-68
2023/07/29 02:48:41;;;;;;;12.77;11.00;;;;;;;;;;5054438;28;20104;-67
2023/07/29 02:51:06;;;;;;;16.42;12.88;;;;;;;;;;5052774;28;20411;-68
2023/07/29 02:53:32;;;;;;;12.00;10.88;;;;;;;;;;5054027;28;20556;-69
2023/07/29 02:55:57;;;;;;;15.13;11.20;;;;;;;;;;5052477;28;20021;-68
2023/07/29 02:58:22;;;;;;;12.93;11.60;;;;;;;;;;5054186;28;20447;-68
2023/07/29 03:00:48;;;;;;;13.90;12.13;;;;;;;;;;5053916;28;20021;-68
2023/07/29 03:03:13;;;;;;;13.68;12.30;;;;;;;;;;5072410;28;20492;-67
2023/07/29 03:05:39;;;;;;;13.60;12.07;;;;;;;;;;5074108;28;20016;-68
2023/07/29 03:08:04;;;;;;;15.93;12.33;;;;;;;;;;5071811;28;20043;-68
2023/07/29 03:10:29;;;;;;;13.05;11.30;;;;;;;;;;5073617;28;20048;-68
2023/07/29 03:12:55;;;;;;;15.30;12.47;;;;;;;;;;5067013;28;20040;-67
2023/07/29 03:15:23;;;;;;;14.82;11.88;;;;;;;;;;5053512;28;20455;-67
2023/07/29 03:17:48;;;;;;;16.65;12.32;;;;;;;;;;5068965;28;20024;-67
2023/07/29 03:20:13;;;;;;;16.10;12.18;;;;;;;;;;5073823;28;20431;-67
2023/07/29 03:22:38;;;;;;;16.65;11.90;;;;;;;;;;5071834;28;20098;-67
2023/07/29 03:25:05;;;;;;;16.30;13.20;;;;;;;;;;5073451;28;20024;-68
2023/07/29 03:27:30;;;;;;;20.90;16.15;;;;;;;;;;5072110;28;20542;-67
2023/07/29 03:29:56;;;;;;;13.82;11.85;;;;;;;;;;5073279;28;20021;-67
2023/07/29 03:32:21;;;;;;;13.27;11.87;;;;;;;;;;5071893;28;20394;-67
2023/07/29 03:34:46;;;;;;;15.17;12.00;;;;;;;;;;5073608;28;20024;-67
2023/07/29 03:37:11;;;;;;;13.25;10.38;;;;;;;;;;5071221;28;20045;-67
2023/07/29 03:39:36;;;;;;;14.50;10.48;;;;;;;;;;5058172;28;20017;-67
2023/07/29 03:42:01;;;;;;;13.43;12.03;;;;;;;;;;5053224;28;20071;-66
2023/07/29 03:44:27;;;;;;;11.38;10.20;;;;;;;;;;5069652;28;20438;-67
2023/07/29 03:46:52;;;;;;;17.88;11.35;;;;;;;;;;5071953;28;20044;-67
2023/07/29 03:49:17;;;;;;;10.73;9.63;;;;;;;;;;5073195;28;20028;-67
2023/07/29 03:51:42;;;;;;;11.47;10.27;;;;;;;;;;5071454;28;20043;-67
2023/07/29 03:54:07;;;;;;;10.95;9.75;;;;;;;;;;5072920;28;20419;-67
2023/07/29 03:56:35;;;;;;;14.53;12.90;;;;;;;;;;5071777;28;20102;-67
2023/07/29 03:59:03;;;;;;;19.35;16.33;;;;;;;;;;5057466;28;20464;-67
2023/07/29 04:01:28;;;;;;;;;;;;;;;;;;5052407;28;20048;-67
2023/07/29 04:03:54;;;;;;;15.93;11.60;;;;;;;;;;5067973;28;19904;-67
2023/07/29 04:06:19;;;;;;;16.13;14.43;;;;;;;;;;5067879;28;20033;-68
2023/07/29 04:08:44;;;;;;;15.20;13.67;;;;;;;;;;5052985;28;20119;-67
2023/07/29 04:11:10;;;;;;;17.80;12.80;;;;;;;;;;5061255;28;20434;-68
2023/07/29 04:13:37;;;;;;;16.07;13.03;;;;;;;;;;5072858;28;20109;-68
2023/07/29 04:16:02;;;;;;;17.67;14.15;;;;;;;;;;5071157;28;20451;-67
2023/07/29 04:18:27;;;;;;;16.60;14.90;;;;;;;;;;5072944;28;20128;-67
2023/07/29 04:20:52;;;;;;;17.73;14.55;;;;;;;;;;5070984;28;20020;-67
2023/07/29 04:23:18;;;;;;;19.33;11.60;;;;;;;;;;5072397;28;20016;-68
2023/07/29 04:25:43;;;;;;;14.52;12.18;;;;;;;;;;5072439;28;20040;-68
2023/07/29 04:28:08;;;;;;;17.27;14.93;;;;;;;;;;5070745;28;20033;-67
2023/07/29 04:30:33;;;;;;;17.63;13.53;;;;;;;;;;5072752;28;20027;-68
2023/07/29 04:32:58;;;;;;;18.47;13.60;;;;;;;;;;5069775;28;20447;-67
2023/07/29 04:35:23;;;;;;;19.90;14.43;;;;;;;;;;5060305;28;20041;-67
2023/07/29 04:37:49;;;;;;;16.03;14.43;;;;;;;;;;5051134;28;20106;-68
2023/07/29 04:40:14;;;;;;;18.80;13.77;;;;;;;;;;5052315;28;20458;-68
2023/07/29 04:42:39;;;;;;;18.15;15.02;;;;;;;;;;5050458;28;20059;-68
2023/07/29 04:45:04;;;;;;;20.53;13.90;;;;;;;;;;5051579;28;20033;-70
2023/07/29 04:47:30;;;;;;;18.92;15.20;;;;;;;;;;5064342;28;20470;-64
2023/07/29 04:49:55;;;;;;;16.45;12.95;;;;;;;;;;5052303;28;20036;-68
2023/07/29 04:52:20;;;;;;;22.08;14.15;;;;;;;;;;5062064;28;20089;-68
2023/07/29 04:54:45;;;;;;;20.77;15.43;;;;;;;;;;5071985;28;20361;-68
2023/07/29 04:57:10;;;;;;;17.30;14.43;;;;;;;;;;5070235;28;20032;-68
2023/07/29 04:59:37;;;;;;;15.07;13.48;;;;;;;;;;5070509;28;20442;-65
2023/07/29 05:02:02;;;;;;;16.35;13.80;;;;;;;;;;5069589;28;20452;-68
2023/07/29 05:04:27;;;;;;;19.70;14.83;;;;;;;;;;5064593;28;20103;-68
2023/07/29 05:06:52;;;;;;;17.65;13.27;;;;;;;;;;5059139;28;20550;-67
2023/07/29 05:09:18;;;;;;;19.83;14.87;;;;;;;;;;5069532;28;20028;-66
2023/07/29 05:11:47;;;;;;;14.23;12.70;;;;;;;;;;5068433;28;20462;-65
2023/07/29 05:14:15;;;;;;;20.88;14.85;;;;;;;;;;5069162;28;20084;-66
2023/07/29 05:16:41;;;;;;;19.30;14.13;;;;;;;;;;5066915;28;20038;-65
2023/07/29 05:19:06;;;;;;;16.10;13.50;;;;;;;;;;5069131;28;20024;-66
2023/07/29 05:21:31;;;;;;;23.48;16.23;;;;;;;;;;5052911;28;20116;-65
2023/07/29 05:23:56;;;;;;;13.03;11.63;;;;;;;;;;5061717;28;20023;-67
2023/07/29 05:26:22;;;;;;;13.67;12.20;;;;;;;;;;5068049;28;20736;-65
2023/07/29 05:28:47;;;;;;;18.63;14.23;;;;;;;;;;5070695;28;20529;-67
2023/07/29 05:31:12;;;;;;;18.23;12.57;;;;;;;;;;5069069;28;20108;-67
2023/07/29 05:33:37;;;;;;;15.30;13.43;;;;;;;;;;5069587;28;20025;-67
2023/07/29 05:36:03;;;;;;;14.95;13.07;;;;;;;;;;5067995;28;20125;-66
2023/07/29 05:38:28;;;;;;;16.05;12.90;;;;;;;;;;5070567;28;20016;-67
2023/07/29 05:40:53;;;;;;;10.93;9.82;;;;;;;;;;5067420;28;20062;-66
2023/07/29 05:43:18;;;;;;;11.67;9.60;;;;;;;;;;5050276;28;20372;-67
2023/07/29 05:45:43;;;;;;;11.93;10.03;;;;;;;;;;5049105;28;20040;-66
2023/07/29 05:48:08;;;;;;;11.07;9.97;;;;;;;;;;5065667;28;20054;-67
2023/07/29 05:50:34;;;;;;;11.97;8.63;;;;;;;;;;5070372;28;20092;-66
2023/07/29 05:52:59;;;;;;;10.83;9.47;;;;;;;;;;5068894;28;20033;-66
2023/07/29 05:55:24;;;;;;;12.75;9.00;;;;;;;;;;5069277;28;20024;-67
2023/07/29 05:57:50;;;;;;;11.48;8.15;;;;;;;;;;5068238;28;20387;-66
2023/07/29 06:00:15;;;;;;;7.93;7.07;;;;;;;;;;5070229;28;20021;-66
2023/07/29 06:02:40;;;;;;;10.13;8.00;;;;;;;;;;5053499;28;20037;-67
2023/07/29 06:05:06;;;;;;;8.65;7.53;;;;;;;;;;5049613;28;20025;-67
2023/07/29 06:07:33;;;;;;;8.25;7.40;;;;;;;;;;5048934;28;20037;-67
2023/07/29 06:09:58;;;;;;;11.50;6.78;;;;;;;;;;5050536;28;20100;-66
2023/07/29 06:12:23;;;;;;;9.00;7.53;;;;;;;;;;5047895;28;20476;-73
2023/07/29 06:14:49;;;;;;;9.63;8.65;;;;;;;;;;5050599;28;20020;-65
2023/07/29 06:17:14;;;;;;;9.70;6.77;;;;;;;;;;5058622;28;20515;-67
2023/07/29 06:19:39;;;;;;;15.77;9.95;;;;;;;;;;5049400;28;20027;-67
2023/07/29 06:22:05;;;;;;;12.70;6.20;;;;;;;;;;5048320;28;20029;-69
2023/07/29 06:24:30;;;;;;;8.25;5.72;;;;;;;;;;5050070;28;20546;-69
2023/07/29 06:26:55;;;;;;;7.93;5.90;;;;;;;;;;5057296;28;20128;-69
2023/07/29 06:29:21;;;;;;;10.60;6.30;;;;;;;;;;5069137;28;20027;-69
2023/07/29 06:31:46;;;;;;;10.80;6.57;;;;;;;;;;5068608;28;20617;-69
2023/07/29 06:34:11;;;;;;;11.17;7.53;;;;;;;;;;5069284;28;20995;-69
2023/07/29 06:36:36;;;;;;;6.87;5.50;;;;;;;;;;5068398;28;20488;-70
2023/07/29 06:39:01;;;;;;;6.33;5.73;;;;;;;;;;5070115;28;20009;-70
2023/07/29 06:41:26;;;;;;;6.83;4.43;;;;;;;;;;5067972;28;20036;-69
2023/07/29 06:43:52;;;;;;;6.13;5.23;;;;;;;;;;5070025;28;20013;-70
2023/07/29 06:46:18;;;;;;;7.30;6.47;;;;;;;;;;5066949;28;20033;-69
2023/07/29 06:48:43;;;;;;;4.65;4.25;;;;;;;;;;5050055;28;20450;-70
2023/07/29 06:51:08;;;;;;;9.60;4.95;;;;;;;;;;5048333;28;20467;-70
2023/07/29 06:53:33;;;;;;;19.50;6.68;;;;;;;;;;5049826;28;20021;-70
2023/07/29 06:55:59;;;;;;;4.30;3.63;;;;;;;;;;5058153;28;20027;-70
2023/07/29 06:58:24;;;;;;;6.47;3.80;;;;;;;;;;5069385;28;20538;-70
2023/07/29 07:00:49;;;;;;;4.87;4.37;;;;;;;;;;5069175;28;20116;-67
2023/07/29 07:03:15;;;;;;;5.78;4.95;;;;;;;;;;5062257;28;20074;-70
2023/07/29 07:05:40;;;;;;;5.10;4.60;;;;;;;;;;5050202;28;20033;-69
2023/07/29 07:08:05;;;;;;;4.75;4.35;;;;;;;;;;5066032;28;20067;-70
2023/07/29 07:10:30;;;;;;;5.53;4.20;;;;;;;;;;5069916;28;20064;-70
2023/07/29 07:12:55;;;;;;;4.85;4.45;;;;;;;;;;5068022;28;20053;-70
2023/07/29 07:15:21;;;;;;;8.53;5.63;;;;;;;;;;5071479;28;20024;-70
2023/07/29 07:17:46;;;;;;;6.63;4.17;;;;;;;;;;5072061;28;20075;-70
2023/07/29 07:20:11;;;;;;;5.70;5.10;;;;;;;;;;5055291;28;21069;-70
2023/07/29 07:22:36;;;;;;;8.57;4.30;;;;;;;;;;5067197;28;20036;-70
2023/07/29 07:25:01;;;;;;;9.40;4.80;;;;;;;;;;5061860;28;20021;-70
2023/07/29 07:27:27;;;;;;;7.00;5.03;;;;;;;;;;5051120;28;20041;-70
2023/07/29 07:29:52;;;;;;;10.48;5.28;;;;;;;;;;5051641;28;20504;-70
2023/07/29 07:32:17;;;;;;;6.80;5.03;;;;;;;;;;5050839;28;20029;-70
2023/07/29 07:34:42;;;;;;;4.88;3.72;;;;;;;;;;5064111;28;20035;-70
2023/07/29 07:37:07;;;;;;;7.33;5.37;;;;;;;;;;5045930;28;20083;-70
2023/07/29 07:39:32;;;;;;;8.07;5.23;;;;;;;;;;5033162;28;20040;-70
2023/07/29 07:41:58;;;;;;;7.77;5.40;;;;;;;;;;5040185;28;20989;-70
2023/07/29 07:44:26;;;;;;;7.18;4.55;;;;;;;;;;5051110;28;20021;-70
2023/07/29 07:46:51;;;;;;;7.68;5.80;;;;;;;;;;5060127;28;20059;-70
2023/07/29 07:49:16;;;;;;;7.03;6.28;;;;;;;;;;5066978;28;20488;-70
2023/07/29 07:51:43;;;;;;;7.30;5.78;;;;;;;;;;5057823;28;20056;-72
2023/07/29 07:54:08;;;;;;;10.52;5.97;;;;;;;;;;5072264;28;20020;-69
2023/07/29 07:56:33;;;;;;;18.17;6.55;;;;;;;;;;5070836;28;20098;-70
2023/07/29 07:58:58;;;;;;;5.90;4.75;;;;;;;;;;5072516;28;20055;-70
2023/07/29 08:01:23;;;;;;;6.60;4.30;;;;;;;;;;5071036;28;20036;-70
2023/07/29 08:03:48;;;;;;;6.28;4.95;;;;;;;;;;5071976;28;20097;-71
2023/07/29 08:06:14;;;;;;;8.80;5.47;;;;;;;;;;5071037;28;20040;-71
2023/07/29 08:08:39;;;;;;;6.30;5.70;;;;;;;;;;5072453;28;20407;-71
2023/07/29 08:11:04;;;;;;;6.05;5.10;;;;;;;;;;5070529;28;20023;-71
2023/07/29 08:13:29;;;;;;;6.63;5.47;;;;;;;;;;5071187;28;20424;-70
2023/07/29 08:15:54;;;;;;;5.77;5.07;;;;;;;;;;5055199;28;20020;-70
2023/07/29 08:18:20;;;;;;;5.57;5.07;;;;;;;;;;5064128;28;20017;-70
2023/07/29 08:20:53;;;;;;;9.35;5.18;;;;;;;;;;5072540;28;20028;-71
2023/07/29 08:23:18;;;;;;;14.55;6.20;;;;;;;;;;5070476;28;20134;-70
2023/07/29 08:25:43;;;;;;;6.67;5.37;;;;;;;;;;5071232;28;20479;-76
2023/07/29 08:28:11;;;;;;;10.25;5.53;;;;;;;;;;5070046;28;20033;-70
2023/07/29 08:30:36;;;;;;;9.45;5.10;;;;;;;;;;5072265;28;20025;-70
2023/07/29 08:33:01;;;;;;;4.97;4.40;;;;;;;;;;5059926;28;20041;-71
2023/07/29 08:35:26;;;;;;;7.13;5.88;;;;;;;;;;5061854;28;20036;-71
2023/07/29 08:37:51;;;;;;;15.20;7.03;;;;;;;;;;5070315;28;20555;-69
2023/07/29 08:40:16;;;;;;;10.23;6.93;;;;;;;;;;5071565;28;20024;-71
2023/07/29 08:42:44;;;;;;;10.80;4.70;;;;;;;;;;5070365;28;20045;-70
2023/07/29 08:45:10;;;;;;;7.80;4.87;;;;;;;;;;5070828;28;20025;-71
2023/07/29 08:47:35;;;;;;;5.05;4.25;;;;;;;;;;5069948;28;20473;-71
2023/07/29 08:50:02;;;;;;;4.90;4.07;;;;;;;;;;5071351;28;20012;-71
2023/07/29 08:52:28;;;;;;;5.18;4.53;;;;;;;;;;5069661;28;20028;-71
2023/07/29 08:54:54;;;;;;;4.55;4.13;;;;;;;;;;5069573;28;20036;-71
2023/07/29 08:57:19;;;;;;;4.93;4.40;;;;;;;;;;5051241;28;20090;-72
2023/07/29 08:59:45;;;;;;;5.03;3.30;;;;;;;;;;5051213;28;20368;-70
2023/07/29 09:02:10;;;;;;;8.65;3.78;;;;;;;;;;5059825;28;20037;-70
2023/07/29 09:04:35;;;;;;;8.70;3.43;;;;;;;;;;5071512;28;20020;-70
2023/07/29 09:07:01;;;;;;;23.70;6.25;;;;;;;;;;5070046;28;20032;-71
2023/07/29 09:09:26;;;;;;;4.47;3.53;;;;;;;;;;5051406;28;20029;-71
2023/07/29 09:11:51;;;;;;;5.85;2.97;;;;;;;;;;5050200;28;20052;-69
2023/07/29 09:14:17;;;;;;;5.07;3.63;;;;;;;;;;5062984;28;20034;-71
2023/07/29 09:16:42;;;;;;;3.67;3.13;;;;;;;;;;5069487;28;20710;-71
2023/07/29 09:19:07;;;;;;;6.47;2.90;;;;;;;;;;5070900;28;20024;-71
2023/07/29 09:21:32;;;;;;;3.27;2.73;;;;;;;;;;5069733;28;20048;-70
2023/07/29 09:24:02;;;;;;;4.78;2.70;;;;;;;;;;5071006;28;20403;-70
2023/07/29 09:26:27;;;;;;;9.13;3.55;;;;;;;;;;5069465;28;20434;-71
2023/07/29 09:28:53;;;;;;;4.68;2.72;;;;;;;;;;5070709;28;20031;-70
2023/07/29 09:31:20;;;;;;;3.92;3.63;;;;;;;;;;5067643;28;20041;-71
2023/07/29 09:33:45;;;;;;;4.43;2.92;;;;;;;;;;5051244;28;20085;-70
2023/07/29 09:36:10;;;;;;;4.13;2.63;;;;;;;;;;5049008;28;20499;-71
2023/07/29 09:38:36;;;;;;;6.90;4.13;;;;;;;;;;5050517;28;20025;-70
2023/07/29 09:41:01;;;;;;;5.87;2.57;;;;;;;;;;5050170;28;20021;-70
2023/07/29 09:43:30;;;;;;;4.80;3.60;;;;;;;;;;5050892;28;20017;-69
2023/07/29 09:45:59;;;;;;;4.43;3.50;;;;;;;;;;5049506;28;20503;-69
2023/07/29 09:48:24;;;;;;;4.30;3.58;;;;;;;;;;5050351;28;20013;-70
2023/07/29 09:50:49;;;;;;;3.57;3.27;;;;;;;;;;5070963;28;20020;-70
2023/07/29 09:53:15;;;;;;;5.23;3.03;;;;;;;;;;5068883;28;20454;-69
2023/07/29 09:55:45;;;;;;;8.93;5.78;;;;;;;;;;5070185;28;20450;-69
2023/07/29 09:58:10;;;;;;;4.18;3.75;;;;;;;;;;5061625;28;20102;-69
2023/07/29 10:00:38;;;;;;;4.47;3.55;;;;;;;;;;5050635;28;20025;-69
2023/07/29 10:03:03;;;;;;;2.95;2.70;;;;;;;;;;5048533;28;20132;-69
2023/07/29 10:05:29;;;;;;;4.07;3.33;;;;;;;;;;5051112;28;20103;-69
2023/07/29 10:07:54;;;;;;;8.30;4.38;;;;;;;;;;5048114;28;20043;-69
2023/07/29 10:10:19;;;;;;;4.25;3.38;;;;;;;;;;5049906;28;20095;-69
2023/07/29 10:12:45;;;;;;;3.43;2.80;;;;;;;;;;5049431;28;20033;-69
2023/07/29 10:15:10;;;;;;;3.95;3.58;;;;;;;;;;5050319;28;20052;-69
2023/07/29 10:17:36;;;;;;;3.97;3.58;;;;;;;;;;5048669;28;20025;-69
2023/07/29 10:20:06;;;;;;;4.55;2.70;;;;;;;;;;5049984;28;20044;-69
2023/07/29 10:22:42;;;;;;;4.15;3.78;;;;;;;;;;5046574;28;20116;-70
2023/07/29 10:25:08;;;;;;;7.28;3.75;;;;;;;;;;5048821;28;20021;-70
2023/07/29 10:27:43;;;;;;;3.72;3.10;;;;;;;;;;5062947;28;20045;-69
2023/07/29 10:30:10;;;;;;;3.33;3.03;;;;;;;;;;5068363;28;20021;-69
2023/07/29 10:32:35;;;;;;;6.13;3.33;;;;;;;;;;5068464;28;20051;-70
2023/07/29 10:35:00;;;;;;;2.22;2.03;;;;;;;;;;5067819;28;20029;-70
2023/07/29 10:37:26;;;;;;;3.07;2.73;;;;;;;;;;5068254;28;20086;-69
2023/07/29 10:39:54;;;;;;;9.37;3.30;;;;;;;;;;5069487;28;20411;-69
2023/07/29 10:42:19;;;;;;;4.85;3.25;;;;;;;;;;5068655;28;20453;-69
2023/07/29 10:44:54;;;;;;;6.93;3.03;;;;;;;;;;5064523;28;20380;-69
2023/07/29 10:47:20;;;;;;;4.20;3.13;;;;;;;;;;5047572;28;21868;-69
2023/07/29 10:49:47;;;;;;;4.95;3.08;;;;;;;;;;5051295;28;20025;-70
2023/07/29 10:52:16;;;;;;;2.72;2.53;;;;;;;;;;5060569;28;20037;-69
2023/07/29 10:54:45;;;;;;;4.43;1.95;;;;;;;;;;5074052;28;20028;-69
2023/07/29 10:57:15;;;;;;;2.53;2.33;;;;;;;;;;5071877;28;20043;-69
2023/07/29 10:59:40;;;;;;;3.90;2.20;;;;;;;;;;5073347;28;20031;-69
2023/07/29 11:02:15;;;;;;;2.58;2.08;;;;;;;;;;5071677;28;20112;-69
2023/07/29 11:04:47;;;;;;;5.30;1.70;;;;;;;;;;5073667;28;20115;-69
2023/07/29 11:07:12;;;;;;;3.33;1.90;;;;;;;;;;5072105;28;20538;-69
2023/07/29 11:09:39;;;;;;;4.38;1.92;;;;;;;;;;5072873;28;20569;-68
2023/07/29 11:12:23;;;;;;;4.53;2.05;;;;;;;;;;5071212;28;20517;-69
2023/07/29 11:14:48;;;;;;;8.13;2.60;;;;;;;;;;5059041;28;20490;-69
2023/07/29 11:17:13;;;;;;;19.95;4.40;;;;;;;;;;5071571;28;20029;-69
2023/07/29 11:19:39;;;;;;;3.00;1.50;;;;;;;;;;5073690;28;20060;-69
2023/07/29 11:22:04;;;;;;;3.08;2.45;;;;;;;;;;5071690;28;20487;-69
2023/07/29 11:24:29;;;;;;;1.40;1.08;;;;;;;;;;5072736;28;20024;-69
2023/07/29 11:26:54;;;;;;;1.23;1.10;;;;;;;;;;5072027;28;20029;-69
2023/07/29 11:29:20;;;;;;;7.53;3.05;;;;;;;;;;5073055;28;20437;-69
2023/07/29 11:31:45;;;;;;;6.95;2.50;;;;;;;;;;5071353;28;20116;-70
2023/07/29 11:34:11;;;;;;;7.23;3.67;;;;;;;;;;5072564;28;20032;-70
2023/07/29 11:36:36;;;;;;;2.33;1.55;;;;;;;;;;5068239;28;20471;-68
2023/07/29 11:39:08;;;;;;;2.45;2.10;;;;;;;;;;5072936;28;20016;-68
2023/07/29 11:41:34;;;;;;;4.07;1.67;;;;;;;;;;5068766;28;20171;-68
2023/07/29 11:43:59;;;;;;;5.67;2.70;;;;;;;;;;5071011;28;20115;-66
2023/07/29 11:46:24;;;;;;;4.03;2.20;;;;;;;;;;5070988;28;20436;-68
2023/07/29 11:48:50;;;;;;;1.90;1.63;;;;;;;;;;5069428;28;20463;-68
2023/07/29 11:51:15;;;;;;;5.73;2.27;;;;;;;;;;5070917;28;20059;-68
2023/07/29 11:53:41;;;;;;;4.00;2.13;;;;;;;;;;5071432;28;20503;-69
2023/07/29 11:56:06;;;;;;;4.22;2.15;;;;;;;;;;5071169;28;20024;-68
2023/07/29 11:58:31;;;;;;;2.83;1.67;;;;;;;;;;5072360;28;20020;-68
2023/07/29 12:00:57;;;;;;;2.17;1.90;;;;;;;;;;5070922;28;20027;-68
2023/07/29 12:03:22;;;;;;;2.70;2.15;;;;;;;;;;5072535;28;20470;-69
2023/07/29 12:05:48;;;;;;;3.15;2.30;;;;;;;;;;5073209;28;20459;-69
2023/07/29 12:08:13;;;;;;;7.13;3.47;;;;;;;;;;5070208;28;20119;-70
2023/07/29 12:10:39;;;;;;;29.25;4.28;;;;;;;;;;5072645;28;20025;-68
2023/07/29 12:13:04;;;;;;;9.52;4.15;;;;;;;;;;5069300;28;20116;-69
2023/07/29 12:15:29;;;;;;;6.27;2.03;;;;;;;;;;5068597;28;20068;-70
2023/07/29 12:17:58;;;;;;;2.40;2.20;;;;;;;;;;5068936;28;20166;-70
2023/07/29 12:20:24;;;;;;;2.92;2.63;;;;;;;;;;5071302;28;20020;-70
2023/07/29 12:22:53;;;;;;;7.32;2.58;;;;;;;;;;5070452;28;20564;-69
2023/07/29 12:25:19;;;;;;;3.08;2.75;;;;;;;;;;5071730;28;20085;-69
2023/07/29 12:27:44;;;;;;;2.75;2.25;;;;;;;;;;5068712;28;20036;-71
2023/07/29 12:30:09;;;;;;;3.23;2.50;;;;;;;;;;5071374;28;20059;-71
2023/07/29 12:32:43;;;;;;;4.07;2.33;;;;;;;;;;5069178;28;20473;-70
2023/07/29 12:35:09;;;;;;;3.03;2.83;;;;;;;;;;5070493;28;20016;-71
2023/07/29 12:37:34;;;;;;;2.47;2.28;;;;;;;;;;5070327;28;20059;-71
2023/07/29 12:39:59;;;;;;;2.33;2.23;;;;;;;;;;5071197;28;20471;-71
2023/07/29 12:42:25;;;;;;;9.93;2.57;;;;;;;;;;5070818;28;20935;-71
2023/07/29 12:44:50;;;;;;;3.03;2.63;;;;;;;;;;5070520;28;20116;-77
2023/07/29 12:47:15;;;;;;;3.55;2.97;;;;;;;;;;5070781;28;20062;-70
2023/07/29 12:49:40;;;;;;;3.55;3.25;;;;;;;;;;5072123;28;20032;-70
2023/07/29 12:52:06;;;;;;;3.30;3.03;;;;;;;;;;5070125;28;20115;-71
2023/07/29 12:54:31;;;;;;;3.55;2.35;;;;;;;;;;5071724;28;20027;-70
2023/07/29 12:56:56;;;;;;;3.58;3.25;;;;;;;;;;5070677;28;20056;-71
2023/07/29 12:59:21;;;;;;;2.33;2.13;;;;;;;;;;5071673;28;20016;-71
2023/07/29 13:01:46;;;;;;;5.28;2.47;;;;;;;;;;5070636;28;20032;-71
2023/07/29 13:04:12;;;;;;;5.32;2.95;;;;;;;;;;5071838;28;20023;-70
2023/07/29 13:06:37;;;;;;;4.88;2.78;;;;;;;;;;5070216;28;20032;-71
2023/07/29 13:09:03;;;;;;;4.75;3.15;;;;;;;;;;5071715;28;20024;-70
2023/07/29 13:11:28;;;;;;;4.03;3.20;;;;;;;;;;5069805;28;20086;-70
2023/07/29 13:13:53;;;;;;;8.73;3.30;;;;;;;;;;5070526;28;20498;-71
2023/07/29 13:16:18;;;;;;;8.23;3.72;;;;;;;;;;5069930;28;20048;-71
2023/07/29 13:18:44;;;;;;;4.85;4.45;;;;;;;;;;5071664;28;20506;-70
2023/07/29 13:21:09;;;;;;;5.72;5.20;;;;;;;;;;5069256;28;20020;-70
2023/07/29 13:23:34;;;;;;;6.80;3.85;;;;;;;;;;5071640;28;20026;-71
2023/07/29 13:25:59;;;;;;;4.37;3.97;;;;;;;;;;5070059;28;20422;-70
2023/07/29 13:28:24;;;;;;;5.03;4.33;;;;;;;;;;5071064;28;20947;-71
2023/07/29 13:30:50;;;;;;;4.93;4.43;;;;;;;;;;5070198;28;20012;-70
2023/07/29 13:33:15;;;;;;;5.40;4.90;;;;;;;;;;5071153;28;20557;-71
2023/07/29 13:35:40;;;;;;;4.88;4.20;;;;;;;;;;5070400;28;20467;-71
2023/07/29 13:38:05;;;;;;;3.10;2.90;;;;;;;;;;5068546;28;20065;-71
2023/07/29 13:40:31;;;;;;;3.93;2.77;;;;;;;;;;5070625;28;20024;-71
2023/07/29 13:42:56;;;;;;;3.28;2.97;;;;;;;;;;5068726;28;20373;-71
2023/07/29 13:45:21;;;;;;;2.90;2.70;;;;;;;;;;5070282;28;20016;-71
2023/07/29 13:47:46;;;;;;;1.95;1.85;;;;;;;;;;5068973;28;20127;-70
2023/07/29 13:50:12;;;;;;;1.60;1.50;;;;;;;;;;5068496;28;20110;-71
2023/07/29 13:52:37;;;;;;;1.50;1.40;;;;;;;;;;5067458;28;20033;-71
2023/07/29 13:55:03;;;;;;;1.53;1.43;;;;;;;;;;5070149;28;20521;-70
2023/07/29 13:57:28;;;;;;;2.78;1.55;;;;;;;;;;5057863;28;20041;-70
2023/07/29 13:59:53;;;;;;;1.30;1.20;;;;;;;;;;5050234;28;20013;-70
2023/07/29 14:02:18;;;;;;;1.20;1.20;;;;;;;;;;5048689;28;20100;-71
2023/07/29 14:04:43;;;;;;;5.20;1.33;;;;;;;;;;5050036;28;20021;-71
2023/07/29 14:07:09;;;;;;;1.57;1.47;;;;;;;;;;5048293;28;20095;-70
2023/07/29 14:09:34;;;;;;;1.92;1.10;;;;;;;;;;5066180;28;20443;-71
2023/07/29 14:11:59;;;;;;;1.83;1.20;;;;;;;;;;5068611;28;20063;-70
2023/07/29 14:14:24;;;;;;;1.93;1.40;;;;;;;;;;5069617;28;20418;-70
2023/07/29 14:16:49;;;;;;;1.52;1.42;;;;;;;;;;5065122;28;20500;-70
2023/07/29 14:19:14;;;;;;;1.30;1.20;;;;;;;;;;5049725;28;20017;-71
2023/07/29 14:21:40;;;;;;;1.37;1.27;;;;;;;;;;5048100;28;20444;-74
2023/07/29 14:24:05;;;;;;;2.08;1.40;;;;;;;;;;5048569;28;20024;-71